Time;durP1;ratioP1;P1;durP2;ratioP2;P2;SDS_P1;SDS_P2;PMS_P1;PMS_P2;Temp;Humidity;BMP_temperature;BMP_pressure;BME280_temperature;BME280_humidity;BME280_pressure;Samples;Min_cycle;Max_cycle;Signal;HPM_P1;HPM_P2
2024/03/06 00:00:57;;;;;;;;;;;;;;;;;;4187727;28;19924;-63
2024/03/06 00:02:58;;;;;;;;;;;;;;;;;;4180617;28;19932;-63
2024/03/06 00:04:59;;;;;;;;;;;;;;;;;;4180861;28;20420;-63
2024/03/06 00:07:01;;;;;;;;;;;;;;;;;;4182584;28;20019;-63
2024/03/06 00:09:03;;;;;;;;;;;;;;;;;;4182180;28;19932;-63
2024/03/06 00:11:04;;;;;;;;;;;;;;;;;;4182173;28;20366;-63
2024/03/06 00:13:06;;;;;;;;;;;;;;;;;;4182208;28;20434;-63
2024/03/06 00:15:07;;;;;;;;;;;;;;;;;;4182510;28;19925;-63
2024/03/06 00:17:09;;;;;;;;;;;;;;;;;;4164687;28;19921;-63
2024/03/06 00:19:11;;;;;;;;;;;;;;;;;;4182833;28;19928;-63
2024/03/06 00:21:12;;;;;;;;;;;;;;;;;;4182993;28;19924;-63
2024/03/06 00:23:14;;;;;;;;;;;;;;;;;;4183575;28;19983;-63
2024/03/06 00:25:16;;;;;;;;;;;;;;;;;;4183659;28;19924;-60
2024/03/06 00:27:17;;;;;;;;;;;;;;;;;;4183154;28;19925;-59
2024/03/06 00:29:19;;;;;;;;;;;;;;;;;;4182985;28;19928;-59
2024/03/06 00:31:21;;;;;;;;;;;;;;;;;;4183403;28;19924;-59
2024/03/06 00:33:22;;;;;;;;;;;;;;;;;;4183651;28;19920;-59
2024/03/06 00:35:24;;;;;;;;;;;;;;;;;;4183142;28;19956;-59
2024/03/06 00:37:25;;;;;;;;;;;;;;;;;;4183250;28;19948;-61
2024/03/06 00:39:26;;;;;;;;;;;;;;;;;;4183347;28;19920;-59
2024/03/06 00:41:28;;;;;;;;;;;;;;;;;;4183317;28;20381;-59
2024/03/06 00:43:29;;;;;;;;;;;;;;;;;;4183184;28;20377;-59
2024/03/06 00:45:31;;;;;;;;;;;;;;;;;;4183265;28;19925;-59
2024/03/06 00:47:34;;;;;;;;;;;;;;;;;;4183198;28;19963;-59
2024/03/06 00:49:36;;;;;;;;;;;;;;;;;;4183074;28;19924;-59
2024/03/06 00:51:38;;;;;;;;;;;;;;;;;;4183279;28;19927;-59
2024/03/06 00:53:45;;;;;;;;;;;;;;;;;;4166356;28;19928;-59
2024/03/06 00:55:47;;;;;;;;;;;;;;;;;;4183187;28;19963;-59
2024/03/06 00:57:48;;;;;;;;;;;;;;;;;;4182909;28;19967;-59
2024/03/06 00:59:49;;;;;;;;;;;;;;;;;;4182952;28;19921;-59
2024/03/06 01:01:51;;;;;;;;;;;;;;;;;;4182821;28;19925;-59
2024/03/06 01:03:53;;;;;;;;;;;;;;;;;;4182942;28;19967;-59
2024/03/06 01:05:55;;;;;;;;;;;;;;;;;;4165025;28;19921;-58
2024/03/06 01:07:56;;;;;;;;;;;;;;;;;;4182902;28;19920;-61
2024/03/06 01:09:58;;;;;;;;;;;;;;;;;;4165569;28;19968;-60
2024/03/06 01:11:59;;;;;;;;;;;;;;;;;;4182659;28;20015;-60
2024/03/06 01:14:02;;;;;;;;;;;;;;;;;;4165077;28;19925;-60
2024/03/06 01:16:03;;;;;;;;;;;;;;;;;;4182568;28;19927;-59
2024/03/06 01:18:05;;;;;;;;;;;;;;;;;;4181861;28;19925;-60
2024/03/06 01:20:06;;;;;;;;;;;;;;;;;;4164846;28;19925;-59
2024/03/06 01:22:08;;;;;;;;;;;;;;;;;;4182634;28;19978;-59
2024/03/06 01:24:09;;;;;;;;;;;;;;;;;;4182582;28;19947;-59
2024/03/06 01:26:11;;;;;;;;;;;;;;;;;;4182405;28;19929;-63
2024/03/06 01:28:13;;;;;;;;;;;;;;;;;;4182297;28;19967;-63
2024/03/06 01:30:15;;;;;;;;;;;;;;;;;;4182884;28;19921;-63
2024/03/06 01:32:16;;;;;;;;;;;;;;;;;;4182337;28;19966;-63
2024/03/06 01:34:18;;;;;;;;;;;;;;;;;;4182313;28;19921;-63
2024/03/06 01:36:20;;;;;;;;;;;;;;;;;;4182328;28;19970;-59
2024/03/06 01:38:21;;;;;;;;;;;;;;;;;;4182368;28;20311;-59
2024/03/06 01:40:23;;;;;;;;;;;;;;;;;;4182251;28;19971;-59
2024/03/06 01:42:25;;;;;;;;;;;;;;;;;;4182251;28;19952;-59
2024/03/06 01:44:26;;;;;;;;;;;;;;;;;;4182252;28;19921;-59
2024/03/06 01:46:28;;;;;;;;;;;;;;;;;;4182191;28;19971;-58
2024/03/06 01:48:29;;;;;;;;;;;;;;;;;;4182002;28;20418;-59
2024/03/06 01:50:31;;;;;;;;;;;;;;;;;;4182220;28;20373;-59
2024/03/06 01:52:32;;;;;;;;;;;;;;;;;;4181930;28;20364;-58
2024/03/06 01:54:34;;;;;;;;;;;;;;;;;;4182043;28;19920;-58
2024/03/06 01:56:36;;;;;;;;;;;;;;;;;;4182311;28;19948;-59
2024/03/06 01:58:37;;;;;;;;;;;;;;;;;;4180855;28;20355;-59
2024/03/06 02:00:39;;;;;;;;;;;;;;;;;;4182546;28;19920;-59
2024/03/06 02:04:43;;;;;;;;;;;;;;;;;;4161191;28;19925;-58
2024/03/06 02:06:45;;;;;;;;;;;;;;;;;;4165054;28;20343;-58
2024/03/06 02:08:46;;;;;;;;;;;;;;;;;;4165385;28;20395;-58
2024/03/06 02:10:48;;;;;;;;;;;;;;;;;;4165703;28;19921;-58
2024/03/06 02:12:50;;;;;;;;;;;;;;;;;;4165297;28;19921;-59
2024/03/06 02:14:52;;;;;;;;;;;;;;;;;;4165497;28;19925;-59
2024/03/06 02:16:53;;;;;;;;;;;;;;;;;;4165295;28;19952;-58
2024/03/06 02:18:55;;;;;;;;;;;;;;;;;;4165096;28;19921;-58
2024/03/06 02:20:56;;;;;;;;;;;;;;;;;;4165170;28;19925;-58
2024/03/06 02:22:58;;;;;;;;;;;;;;;;;;4165082;28;19983;-58
2024/03/06 02:24:59;;;;;;;;;;;;;;;;;;4165151;28;19921;-57
2024/03/06 02:27:01;;;;;;;;;;;;;;;;;;4165028;28;19974;-57
2024/03/06 02:29:02;;;;;;;;;;;;;;;;;;4165011;28;19928;-58
2024/03/06 02:31:06;;;;;;;;;;;;;;;;;;4164830;28;19925;-58
2024/03/06 02:33:09;;;;;;;;;;;;;;;;;;4164920;28;19971;-58
2024/03/06 02:35:10;;;;;;;;;;;;;;;;;;4164846;28;19921;-58
2024/03/06 02:37:12;;;;;;;;;;;;;;;;;;4165109;28;19921;-57
2024/03/06 02:39:14;;;;;;;;;;;;;;;;;;4164865;28;19924;-58
2024/03/06 02:41:16;;;;;;;;;;;;;;;;;;4163340;28;20325;-58
2024/03/06 02:43:17;;;;;;;;;;;;;;;;;;4160201;28;20373;-58
2024/03/06 02:45:19;;;;;;;;;;;;;;;;;;4164529;28;20384;-58
2024/03/06 02:47:20;;;;;;;;;;;;;;;;;;4164665;28;20437;-58
2024/03/06 02:49:22;;;;;;;;;;;;;;;;;;4164615;28;19975;-58
2024/03/06 02:51:23;;;;;;;;;;;;;;;;;;4164778;28;19924;-58
2024/03/06 02:53:25;;;;;;;;;;;;;;;;;;4152584;28;19922;-58
2024/03/06 02:55:27;;;;;;;;;;;;;;;;;;4148489;28;19921;-58
2024/03/06 02:57:28;;;;;;;;;;;;;;;;;;4149069;28;20000;-58
2024/03/06 02:59:30;;;;;;;;;;;;;;;;;;4177216;28;20368;-58
2024/03/06 03:01:31;;;;;;;;;;;;;;;;;;4164833;28;19971;-59
2024/03/06 03:03:33;;;;;;;;;;;;;;;;;;4164296;28;19921;-58
2024/03/06 03:05:34;;;;;;;;;;;;;;;;;;4164614;28;19964;-58
2024/03/06 03:07:36;;;;;;;;;;;;;;;;;;4164826;28;19921;-58
2024/03/06 03:09:38;;;;;;;;;;;;;;;;;;4164790;28;19921;-58
2024/03/06 03:11:39;;;;;;;;;;;;;;;;;;4164488;28;19921;-57
2024/03/06 03:13:41;;;;;;;;;;;;;;;;;;4164606;28;19921;-58
2024/03/06 03:15:42;;;;;;;;;;;;;;;;;;4164719;28;19921;-58
2024/03/06 03:17:44;;;;;;;;;;;;;;;;;;4164607;28;19966;-57
2024/03/06 03:19:45;;;;;;;;;;;;;;;;;;4164532;28;20354;-56
2024/03/06 03:21:47;;;;;;;;;;;;;;;;;;4164394;28;19952;-56
2024/03/06 03:23:49;;;;;;;;;;;;;;;;;;4164215;28;19928;-56
2024/03/06 03:25:51;;;;;;;;;;;;;;;;;;4164478;28;19953;-56
2024/03/06 03:27:52;;;;;;;;;;;;;;;;;;4164346;28;20003;-56
2024/03/06 03:29:54;;;;;;;;;;;;;;;;;;4164557;28;19972;-57
2024/03/06 03:31:55;;;;;;;;;;;;;;;;;;4164388;28;19975;-56
2024/03/06 03:33:57;;;;;;;;;;;;;;;;;;4164097;28;19921;-56
2024/03/06 03:35:58;;;;;;;;;;;;;;;;;;4164430;28;19924;-57
2024/03/06 03:38:00;;;;;;;;;;;;;;;;;;4164326;28;19925;-56
2024/03/06 03:40:02;;;;;;;;;;;;;;;;;;4164928;28;19921;-57
2024/03/06 03:42:04;;;;;;;;;;;;;;;;;;4167538;28;19933;-57
2024/03/06 03:44:05;;;;;;;;;;;;;;;;;;4167694;28;19921;-56
2024/03/06 03:46:07;;;;;;;;;;;;;;;;;;4167428;28;19921;-57
2024/03/06 03:48:08;;;;;;;;;;;;;;;;;;4167445;28;20011;-56
2024/03/06 03:50:10;;;;;;;;;;;;;;;;;;4167407;28;19921;-57
2024/03/06 03:52:12;;;;;;;;;;;;;;;;;;4167606;28;19932;-57
2024/03/06 03:54:14;;;;;;;;;;;;;;;;;;4171694;28;19929;-56
2024/03/06 03:56:15;;;;;;;;;;;;;;;;;;4183808;28;19928;-57
2024/03/06 03:58:17;;;;;;;;;;;;;;;;;;4183850;28;19925;-56
2024/03/06 04:00:18;;;;;;;;;;;;;;;;;;4183743;28;19929;-56
2024/03/06 04:02:20;;;;;;;;;;;;;;;;;;4183804;28;19924;-57
2024/03/06 04:04:21;;;;;;;;;;;;;;;;;;4183512;28;19999;-57
2024/03/06 04:06:23;;;;;;;;;;;;;;;;;;4173551;28;19947;-56
2024/03/06 04:08:24;;;;;;;;;;;;;;;;;;4166784;28;20380;-57
2024/03/06 04:10:26;;;;;;;;;;;;;;;;;;4165508;28;19932;-56
2024/03/06 04:12:27;;;;;;;;;;;;;;;;;;4165626;28;19928;-57
2024/03/06 04:14:29;;;;;;;;;;;;;;;;;;4165532;28;19929;-56
2024/03/06 04:16:31;;;;;;;;;;;;;;;;;;4165468;28;20462;-56
2024/03/06 04:18:34;;;;;;;;;;;;;;;;;;4165502;28;20027;-56
2024/03/06 04:20:36;;;;;;;;;;;;;;;;;;4165471;28;20399;-56
2024/03/06 04:22:37;;;;;;;;;;;;;;;;;;4165638;28;19928;-56
2024/03/06 04:24:38;;;;;;;;;;;;;;;;;;4166263;28;19928;-57
2024/03/06 04:26:40;;;;;;;;;;;;;;;;;;4167285;28;20007;-57
2024/03/06 04:28:41;;;;;;;;;;;;;;;;;;4167052;28;19928;-57
2024/03/06 04:30:43;;;;;;;;;;;;;;;;;;4166802;28;19925;-57
2024/03/06 04:32:44;;;;;;;;;;;;;;;;;;4166475;28;19968;-56
2024/03/06 04:34:46;;;;;;;;;;;;;;;;;;4166904;28;19932;-57
2024/03/06 04:36:48;;;;;;;;;;;;;;;;;;4166779;28;20372;-57
2024/03/06 04:38:49;;;;;;;;;;;;;;;;;;4166717;28;19952;-56
2024/03/06 04:40:51;;;;;;;;;;;;;;;;;;4166688;28;19921;-56
2024/03/06 04:42:52;;;;;;;;;;;;;;;;;;4166551;28;19921;-56
2024/03/06 04:44:54;;;;;;;;;;;;;;;;;;4166319;28;20442;-56
2024/03/06 04:46:56;;;;;;;;;;;;;;;;;;4166631;28;19921;-57
2024/03/06 04:48:57;;;;;;;;;;;;;;;;;;4166742;28;19921;-56
2024/03/06 04:50:59;;;;;;;;;;;;;;;;;;4166092;28;19993;-57
2024/03/06 04:53:00;;;;;;;;;;;;;;;;;;4177863;28;19920;-57
2024/03/06 04:55:02;;;;;;;;;;;;;;;;;;4182799;28;20035;-56
2024/03/06 04:57:04;;;;;;;;;;;;;;;;;;4183013;28;19976;-55
2024/03/06 04:59:05;;;;;;;;;;;;;;;;;;4183145;28;19928;-57
2024/03/06 05:01:07;;;;;;;;;;;;;;;;;;4182790;28;19920;-56
2024/03/06 05:03:08;;;;;;;;;;;;;;;;;;4182613;28;19924;-57
2024/03/06 05:05:27;;;;;;;;;;;;;;;;;;4182852;28;19908;-56
2024/03/06 05:07:53;;;;;;;;;;;;;;;;;;4165446;28;19971;-56
2024/03/06 05:10:12;;;;;;;;;;;;;;;;;;4164477;28;19912;-56
2024/03/06 05:12:30;;;;;;;;;;;;;;;;;;4152316;28;19909;-56
2024/03/06 05:14:49;;;;;;;;;;;;;;;;;;4162759;28;20399;-56
2024/03/06 05:17:10;;;;;;;;;;;;;;;;;;4154248;28;20316;-56
2024/03/06 05:19:32;;;;;;;;;;;;;;;;;;4155519;28;20373;-57
2024/03/06 05:21:51;;;;;;;;;;;;;;;;;;4150452;28;19919;-56
2024/03/06 05:24:09;;;;;;;;;;;;;;;;;;4166213;28;20284;-56
2024/03/06 05:26:28;;;;;;;;;;;;;;;;;;4166326;28;19908;-56
2024/03/06 05:28:47;;;;;;;;;;;;;;;;;;4165826;28;20011;-56
2024/03/06 05:31:06;;;;;;;;;;;;;;;;;;4165862;28;20268;-56
2024/03/06 05:33:26;;;;;;;;;;;;;;;;;;4165880;28;19917;-56
2024/03/06 05:35:45;;;;;;;;;;;;;;;;;;4165711;28;19909;-56
2024/03/06 05:38:04;;;;;;;;;;;;;;;;;;4166198;28;19913;-57
2024/03/06 05:40:23;;;;;;;;;;;;;;;;;;4165766;28;19909;-56
2024/03/06 05:42:42;;;;;;;;;;;;;;;;;;4165765;28;20288;-56
2024/03/06 05:45:04;;;;;;;;;;;;;;;;;;4165460;28;19977;-56
2024/03/06 05:47:23;;;;;;;;;;;;;;;;;;4175504;28;19908;-56
2024/03/06 05:49:42;;;;;;;;;;;;;;;;;;4182273;28;19956;-56
2024/03/06 05:52:01;;;;;;;;;;;;;;;;;;4182160;28;19913;-57
2024/03/06 05:54:19;;;;;;;;;;;;;;;;;;4182053;28;19958;-56
2024/03/06 05:56:39;;;;;;;;;;;;;;;;;;4182379;28;19909;-56
2024/03/06 05:58:57;;;;;;;;;;;;;;;;;;4157662;28;20399;-57
2024/03/06 06:00:59;;;;;;;;;;;;;;;;;;4165339;28;19921;-56
2024/03/06 06:03:00;;;;;;;;;;;;;;;;;;4159307;28;19925;-56
2024/03/06 06:05:02;;;;;;;;;;;;;;;;;;4167011;28;20342;-56
2024/03/06 06:07:21;;;;;;;;;;;;;;;;;;4181120;28;19925;-57
2024/03/06 06:09:22;;;;;;;;;;;;;;;;;;4181423;28;20376;-56
2024/03/06 06:11:24;;;;;;;;;;;;;;;;;;4163980;28;19932;-56
2024/03/06 06:13:25;;;;;;;;;;;;;;;;;;4163786;28;19925;-56
2024/03/06 06:15:27;;;;;;;;;;;;;;;;;;4180290;28;19928;-57
2024/03/06 06:17:28;;;;;;;;;;;;;;;;;;4163314;28;19925;-56
2024/03/06 06:19:30;;;;;;;;;;;;;;;;;;4148707;28;20292;-57
2024/03/06 06:21:31;;;;;;;;;;;;;;;;;;4148807;28;19967;-57
2024/03/06 06:23:33;;;;;;;;;;;;;;;;;;4148380;28;19925;-60
2024/03/06 06:25:35;;;;;;;;;;;;;;;;;;4150865;28;19929;-59
2024/03/06 06:27:36;;;;;;;;;;;;;;;;;;4159619;28;19928;-59
2024/03/06 06:29:38;;;;;;;;;;;;;;;;;;4160688;28;20531;-59
2024/03/06 06:31:39;;;;;;;;;;;;;;;;;;4165051;28;19945;-60
2024/03/06 06:33:40;;;;;;;;;;;;;;;;;;4164869;28;19921;-60
2024/03/06 06:35:42;;;;;;;;;;;;;;;;;;4164908;28;19921;-60
2024/03/06 06:37:43;;;;;;;;;;;;;;;;;;4157479;28;19976;-60
2024/03/06 06:39:45;;;;;;;;;;;;;;;;;;4164811;28;19975;-59
2024/03/06 06:41:47;;;;;;;;;;;;;;;;;;4163857;28;19932;-60
2024/03/06 06:43:51;;;;;;;;;;;;;;;;;;4163663;28;19921;-60
2024/03/06 06:45:52;;;;;;;;;;;;;;;;;;4180107;28;19921;-59
2024/03/06 06:47:54;;;;;;;;;;;;;;;;;;4181498;28;20391;-59
2024/03/06 06:49:56;;;;;;;;;;;;;;;;;;4181093;28;20434;-60
2024/03/06 06:51:57;;;;;;;;;;;;;;;;;;4180921;28;19971;-59
2024/03/06 06:53:59;;;;;;;;;;;;;;;;;;4181365;28;20347;-59
2024/03/06 06:56:01;;;;;;;;;;;;;;;;;;4181234;28;19920;-59
2024/03/06 06:58:02;;;;;;;;;;;;;;;;;;4180013;28;19921;-60
2024/03/06 07:00:10;;;;;;;;;;;;;;;;;;4164572;28;19921;-59
2024/03/06 07:02:12;;;;;;;;;;;;;;;;;;4164829;28;19967;-59
2024/03/06 07:04:16;;;;;;;;;;;;;;;;;;4164407;28;19921;-59
2024/03/06 07:06:17;;;;;;;;;;;;;;;;;;4164763;28;19921;-59
2024/03/06 07:08:19;;;;;;;;;;;;;;;;;;4164233;28;19947;-59
2024/03/06 07:10:20;;;;;;;;;;;;;;;;;;4164247;28;19920;-59
2024/03/06 07:12:22;;;;;;;;;;;;;;;;;;4164514;28;19921;-60
2024/03/06 07:14:25;;;;;;;;;;;;;;;;;;4163989;28;19956;-60
2024/03/06 07:16:27;;;;;;;;;;;;;;;;;;4164035;28;19954;-59
2024/03/06 07:18:29;;;;;;;;;;;;;;;;;;4164422;28;19925;-60
2024/03/06 07:20:31;;;;;;;;;;;;;;;;;;4164315;28;20381;-60
2024/03/06 07:22:33;;;;;;;;;;;;;;;;;;4164325;28;20087;-60
2024/03/06 07:24:36;;;;;;;;;;;;;;;;;;4164215;28;20328;-60
2024/03/06 07:26:39;;;;;;;;;;;;;;;;;;4164358;28;19927;-60
2024/03/06 07:28:41;;;;;;;;;;;;;;;;;;4164248;28;19975;-59
2024/03/06 07:30:42;;;;;;;;;;;;;;;;;;4164601;28;19925;-61
2024/03/06 07:32:44;;;;;;;;;;;;;;;;;;4164364;28;19928;-59
2024/03/06 07:34:45;;;;;;;;;;;;;;;;;;4164565;28;19925;-60
2024/03/06 07:36:47;;;;;;;;;;;;;;;;;;4164663;28;20012;-60
2024/03/06 07:38:48;;;;;;;;;;;;;;;;;;4164287;28;19975;-60
2024/03/06 07:40:50;;;;;;;;;;;;;;;;;;4169048;28;19921;-60
2024/03/06 07:42:51;;;;;;;;;;;;;;;;;;4180921;28;19928;-60
2024/03/06 07:44:53;;;;;;;;;;;;;;;;;;4180705;28;19920;-60
2024/03/06 07:46:54;;;;;;;;;;;;;;;;;;4180621;28;19921;-60
2024/03/06 07:48:56;;;;;;;;;;;;;;;;;;4180972;28;19921;-60
2024/03/06 07:50:57;;;;;;;;;;;;;;;;;;4180941;28;19921;-60
2024/03/06 07:52:59;;;;;;;;;;;;;;;;;;4180868;28;19927;-60
2024/03/06 07:55:03;;;;;;;;;;;;;;;;;;4173427;28;20331;-60
2024/03/06 07:57:04;;;;;;;;;;;;;;;;;;4164316;28;20114;-60
2024/03/06 07:59:06;;;;;;;;;;;;;;;;;;4164430;28;19929;-60
2024/03/06 08:01:07;;;;;;;;;;;;;;;;;;4164157;28;19921;-60
2024/03/06 08:03:09;;;;;;;;;;;;;;;;;;4163739;28;20339;-60
2024/03/06 08:05:12;;;;;;;;;;;;;;;;;;4146639;28;20413;-60
2024/03/06 08:07:13;;;;;;;;;;;;;;;;;;4163956;28;19983;-60
2024/03/06 08:09:16;;;;;;;;;;;;;;;;;;4164018;28;19928;-60
2024/03/06 08:11:18;;;;;;;;;;;;;;;;;;4164174;28;19975;-61
2024/03/06 08:13:20;;;;;;;;;;;;;;;;;;4163904;28;19925;-60
2024/03/06 08:15:21;;;;;;;;;;;;;;;;;;4164178;28;19955;-60
2024/03/06 08:17:23;;;;;;;;;;;;;;;;;;4164063;28;19921;-61
2024/03/06 08:19:26;;;;;;;;;;;;;;;;;;4163996;28;20377;-61
2024/03/06 08:21:28;;;;;;;;;;;;;;;;;;4164124;28;19920;-60
2024/03/06 08:23:30;;;;;;;;;;;;;;;;;;4164041;28;19925;-60
2024/03/06 08:25:32;;;;;;;;;;;;;;;;;;4164181;28;19931;-60
2024/03/06 08:27:34;;;;;;;;;;;;;;;;;;4166915;28;19991;-60
2024/03/06 08:29:36;;;;;;;;;;;;;;;;;;4166725;28;19928;-60
2024/03/06 08:31:37;;;;;;;;;;;;;;;;;;4166844;28;19928;-61
2024/03/06 08:33:39;;;;;;;;;;;;;;;;;;4166693;28;19927;-61
2024/03/06 08:35:40;;;;;;;;;;;;;;;;;;4166697;28;19920;-61
2024/03/06 08:37:42;;;;;;;;;;;;;;;;;;4176367;28;19956;-61
2024/03/06 08:39:44;;;;;;;;;;;;;;;;;;4183262;28;19928;-60
2024/03/06 08:41:45;;;;;;;;;;;;;;;;;;4183429;28;19936;-60
2024/03/06 08:43:47;;;;;;;;;;;;;;;;;;4183019;28;20390;-60
2024/03/06 08:45:48;;;;;;;;;;;;;;;;;;4183120;28;19928;-61
2024/03/06 08:47:50;;;;;;;;;;;;;;;;;;4183323;28;19925;-60
2024/03/06 08:49:51;;;;;;;;;;;;;;;;;;4182957;28;19948;-61
2024/03/06 08:51:53;;;;;;;;;;;;;;;;;;4170772;28;19952;-61
2024/03/06 08:53:54;;;;;;;;;;;;;;;;;;4166525;28;19921;-61
2024/03/06 08:55:56;;;;;;;;;;;;;;;;;;4166462;28;20373;-61
2024/03/06 08:57:58;;;;;;;;;;;;;;;;;;4166392;28;19924;-60
2024/03/06 09:00:00;;;;;;;;;;;;;;;;;;4166572;28;19921;-62
2024/03/06 09:02:01;;;;;;;;;;;;;;;;;;4166391;28;20046;-61
2024/03/06 09:04:02;;;;;;;;;;;;;;;;;;4166094;28;19925;-61
2024/03/06 09:06:04;;;;;;;;;;;;;;;;;;4166264;28;20339;-61
2024/03/06 09:08:06;;;;;;;;;;;;;;;;;;4166269;28;20024;-62
2024/03/06 09:10:10;;;;;;;;;;;;;;;;;;4149051;28;19925;-60
2024/03/06 09:12:13;;;;;;;;;;;;;;;;;;4166094;28;20270;-60
2024/03/06 09:14:14;;;;;;;;;;;;;;;;;;4166130;28;19921;-61
2024/03/06 09:16:17;;;;;;;;;;;;;;;;;;4166249;28;19964;-61
2024/03/06 09:18:19;;;;;;;;;;;;;;;;;;4166288;28;19983;-60
2024/03/06 09:20:20;;;;;;;;;;;;;;;;;;4165963;28;19987;-61
2024/03/06 09:22:22;;;;;;;;;;;;;;;;;;4166055;28;19928;-61
2024/03/06 09:24:24;;;;;;;;;;;;;;;;;;4166151;28;19971;-60
2024/03/06 09:26:26;;;;;;;;;;;;;;;;;;4165961;28;19928;-60
2024/03/06 09:28:27;;;;;;;;;;;;;;;;;;4166240;28;20365;-61
2024/03/06 09:30:29;;;;;;;;;;;;;;;;;;4165826;28;20376;-61
2024/03/06 09:32:31;;;;;;;;;;;;;;;;;;4165830;28;19925;-61
2024/03/06 09:34:33;;;;;;;;;;;;;;;;;;4180621;28;19971;-61
2024/03/06 09:36:35;;;;;;;;;;;;;;;;;;4164524;28;19956;-61
2024/03/06 09:38:37;;;;;;;;;;;;;;;;;;4181647;28;19954;-60
2024/03/06 09:40:40;;;;;;;;;;;;;;;;;;4182504;28;20295;-61
2024/03/06 09:42:41;;;;;;;;;;;;;;;;;;4164509;28;20365;-60
2024/03/06 09:44:43;;;;;;;;;;;;;;;;;;4182186;28;20287;-60
2024/03/06 09:46:45;;;;;;;;;;;;;;;;;;4182088;28;19971;-60
2024/03/06 09:48:47;;;;;;;;;;;;;;;;;;4182053;28;19929;-61
2024/03/06 09:50:50;;;;;;;;;;;;;;;;;;4148065;28;20012;-61
2024/03/06 09:52:52;;;;;;;;;;;;;;;;;;4182036;28;19920;-61
2024/03/06 09:54:54;;;;;;;;;;;;;;;;;;4182295;28;19974;-60
2024/03/06 09:56:57;;;;;;;;;;;;;;;;;;4181983;28;19921;-60
2024/03/06 09:58:58;;;;;;;;;;;;;;;;;;4181930;28;19924;-61
2024/03/06 10:01:00;;;;;;;;;;;;;;;;;;4181930;28;19966;-61
2024/03/06 10:03:02;;;;;;;;;;;;;;;;;;4181683;28;20058;-61
2024/03/06 10:05:05;;;;;;;;;;;;;;;;;;4181892;28;19924;-61
2024/03/06 10:07:07;;;;;;;;;;;;;;;;;;4181936;28;20422;-60
2024/03/06 10:09:10;;;;;;;;;;;;;;;;;;4181825;28;19921;-61
2024/03/06 10:11:11;;;;;;;;;;;;;;;;;;4181761;28;19962;-61
2024/03/06 10:13:13;;;;;;;;;;;;;;;;;;4181290;28;19944;-61
2024/03/06 10:15:14;;;;;;;;;;;;;;;;;;4181636;28;19952;-60
2024/03/06 10:17:16;;;;;;;;;;;;;;;;;;4181848;28;20015;-61
2024/03/06 10:19:18;;;;;;;;;;;;;;;;;;4175649;28;20012;-63
2024/03/06 10:21:20;;;;;;;;;;;;;;;;;;4165241;28;20385;-62
2024/03/06 10:23:21;;;;;;;;;;;;;;;;;;4165115;28;20292;-62
2024/03/06 10:25:23;;;;;;;;;;;;;;;;;;4165036;28;19967;-61
2024/03/06 10:27:25;;;;;;;;;;;;;;;;;;4165141;28;20291;-62
2024/03/06 10:29:26;;;;;;;;;;;;;;;;;;4168419;28;19970;-62
2024/03/06 10:31:28;;;;;;;;;;;;;;;;;;4181556;28;19956;-63
2024/03/06 10:33:30;;;;;;;;;;;;;;;;;;4181450;28;20027;-61
2024/03/06 10:35:31;;;;;;;;;;;;;;;;;;4181383;28;19954;-62
2024/03/06 10:37:34;;;;;;;;;;;;;;;;;;4181455;28;19951;-62
2024/03/06 10:39:36;;;;;;;;;;;;;;;;;;4181642;28;19956;-62
2024/03/06 10:41:38;;;;;;;;;;;;;;;;;;4181391;28;19927;-62
2024/03/06 10:43:40;;;;;;;;;;;;;;;;;;4175008;28;19935;-62
2024/03/06 10:45:42;;;;;;;;;;;;;;;;;;4164941;28;19956;-62
2024/03/06 10:47:44;;;;;;;;;;;;;;;;;;4164928;28;20000;-62
2024/03/06 10:49:45;;;;;;;;;;;;;;;;;;4161756;28;20435;-62
2024/03/06 10:51:47;;;;;;;;;;;;;;;;;;4161561;28;19929;-62
2024/03/06 10:53:48;;;;;;;;;;;;;;;;;;4165038;28;20373;-62
2024/03/06 10:55:50;;;;;;;;;;;;;;;;;;4168286;28;19928;-62
2024/03/06 10:57:52;;;;;;;;;;;;;;;;;;4158580;28;19921;-62
2024/03/06 10:59:53;;;;;;;;;;;;;;;;;;4157196;28;19929;-61
2024/03/06 11:01:55;;;;;;;;;;;;;;;;;;4155484;28;19926;-62
2024/03/06 11:03:57;;;;;;;;;;;;;;;;;;4152026;28;19925;-61
2024/03/06 11:05:58;;;;;;;;;;;;;;;;;;4164466;28;19925;-62
2024/03/06 11:08:03;;;;;;;;;;;;;;;;;;4164087;28;19921;-62
2024/03/06 11:10:05;;;;;;;;;;;;;;;;;;4158212;28;19921;-62
2024/03/06 11:12:06;;;;;;;;;;;;;;;;;;4160581;28;20380;-62
2024/03/06 11:14:08;;;;;;;;;;;;;;;;;;4177231;28;19952;-62
2024/03/06 11:16:10;;;;;;;;;;;;;;;;;;4157933;28;19975;-62
2024/03/06 11:18:11;;;;;;;;;;;;;;;;;;4158964;28;19921;-62
2024/03/06 11:20:14;;;;;;;;;;;;;;;;;;4148092;28;19921;-62
2024/03/06 11:22:16;;;;;;;;;;;;;;;;;;4148017;28;20364;-62
2024/03/06 11:24:19;;;;;;;;;;;;;;;;;;4148037;28;19929;-61
2024/03/06 11:26:20;;;;;;;;;;;;;;;;;;4170956;28;20373;-62
2024/03/06 11:28:22;;;;;;;;;;;;;;;;;;4180909;28;19975;-63
2024/03/06 11:30:24;;;;;;;;;;;;;;;;;;4162991;28;19921;-61
2024/03/06 11:32:25;;;;;;;;;;;;;;;;;;4161694;28;19966;-61
2024/03/06 11:34:27;;;;;;;;;;;;;;;;;;4164261;28;19924;-61
2024/03/06 11:36:29;;;;;;;;;;;;;;;;;;4162202;28;20394;-61
2024/03/06 11:38:30;;;;;;;;;;;;;;;;;;4148054;28;20635;-60
2024/03/06 11:40:32;;;;;;;;;;;;;;;;;;4170531;28;19931;-61
2024/03/06 11:42:35;;;;;;;;;;;;;;;;;;4180796;28;19939;-61
2024/03/06 11:44:37;;;;;;;;;;;;;;;;;;4180743;28;19932;-61
2024/03/06 11:46:39;;;;;;;;;;;;;;;;;;4165271;28;19921;-61
2024/03/06 11:48:40;;;;;;;;;;;;;;;;;;4161535;28;19975;-61
2024/03/06 11:50:42;;;;;;;;;;;;;;;;;;4147853;28;19921;-61
2024/03/06 11:52:44;;;;;;;;;;;;;;;;;;4150600;28;19925;-60
2024/03/06 11:54:45;;;;;;;;;;;;;;;;;;4163592;28;20293;-61
2024/03/06 11:56:47;;;;;;;;;;;;;;;;;;4157865;28;20381;-61
2024/03/06 11:58:49;;;;;;;;;;;;;;;;;;4158615;28;20015;-60
2024/03/06 12:00:50;;;;;;;;;;;;;;;;;;4162850;28;19921;-61
2024/03/06 12:02:52;;;;;;;;;;;;;;;;;;4166229;28;20019;-61
2024/03/06 12:04:53;;;;;;;;;;;;;;;;;;4167133;28;19964;-60
2024/03/06 12:06:55;;;;;;;;;;;;;;;;;;4160389;28;20403;-61
2024/03/06 12:08:57;;;;;;;;;;;;;;;;;;4150805;28;19925;-61
2024/03/06 12:10:59;;;;;;;;;;;;;;;;;;4150715;28;19921;-62
2024/03/06 12:13:00;;;;;;;;;;;;;;;;;;4166610;28;19931;-60
2024/03/06 12:15:03;;;;;;;;;;;;;;;;;;4167070;28;20331;-60
2024/03/06 12:17:05;;;;;;;;;;;;;;;;;;4159150;28;19925;-62
2024/03/06 12:19:07;;;;;;;;;;;;;;;;;;4157671;28;19931;-61
2024/03/06 12:21:08;;;;;;;;;;;;;;;;;;4156351;28;20012;-62
2024/03/06 12:23:10;;;;;;;;;;;;;;;;;;4164250;28;19928;-61
2024/03/06 12:25:11;;;;;;;;;;;;;;;;;;4155572;28;19992;-60
2024/03/06 12:27:13;;;;;;;;;;;;;;;;;;4161875;28;19921;-60
2024/03/06 12:29:15;;;;;;;;;;;;;;;;;;4162020;28;20381;-60
2024/03/06 12:31:16;;;;;;;;;;;;;;;;;;4165725;28;19967;-61
2024/03/06 12:33:19;;;;;;;;;;;;;;;;;;4158149;28;20344;-61
2024/03/06 12:35:21;;;;;;;;;;;;;;;;;;4161328;28;19921;-61
2024/03/06 12:37:22;;;;;;;;;;;;;;;;;;4164711;28;19928;-61
2024/03/06 12:39:24;;;;;;;;;;;;;;;;;;4150691;28;19925;-61
2024/03/06 12:41:26;;;;;;;;;;;;;;;;;;4163437;28;19921;-60
2024/03/06 12:43:28;;;;;;;;;;;;;;;;;;4160122;28;20384;-58
2024/03/06 12:45:30;;;;;;;;;;;;;;;;;;4136836;28;20000;-58
2024/03/06 12:47:31;;;;;;;;;;;;;;;;;;4166541;28;20328;-58
2024/03/06 12:49:33;;;;;;;;;;;;;;;;;;4166726;28;19967;-58
2024/03/06 12:51:35;;;;;;;;;;;;;;;;;;4148949;28;20309;-57
2024/03/06 12:53:36;;;;;;;;;;;;;;;;;;4166411;28;19920;-58
2024/03/06 12:55:37;;;;;;;;;;;;;;;;;;4166578;28;19925;-58
2024/03/06 12:57:39;;;;;;;;;;;;;;;;;;4166806;28;19924;-58
2024/03/06 12:59:41;;;;;;;;;;;;;;;;;;4166638;28;19928;-59
2024/03/06 13:01:43;;;;;;;;;;;;;;;;;;4166543;28;20396;-59
2024/03/06 13:03:44;;;;;;;;;;;;;;;;;;4164759;28;19921;-58
2024/03/06 13:05:49;;;;;;;;;;;;;;;;;;4166280;28;19928;-58
2024/03/06 13:07:50;;;;;;;;;;;;;;;;;;4166219;28;20324;-58
2024/03/06 13:09:52;;;;;;;;;;;;;;;;;;4166136;28;19928;-59
2024/03/06 13:11:54;;;;;;;;;;;;;;;;;;4166468;28;19964;-58
2024/03/06 13:13:55;;;;;;;;;;;;;;;;;;4165316;28;20027;-58
2024/03/06 13:15:58;;;;;;;;;;;;;;;;;;4166248;28;19956;-59
2024/03/06 13:18:04;;;;;;;;;;;;;;;;;;4168076;28;20414;-59
2024/03/06 13:20:09;;;;;;;;;;;;;;;;;;4178504;28;21694;-59
2024/03/06 13:22:10;;;;;;;;;;;;;;;;;;4165719;28;19921;-57
2024/03/06 13:24:12;;;;;;;;;;;;;;;;;;4164825;28;19921;-58
2024/03/06 13:26:13;;;;;;;;;;;;;;;;;;4166206;28;19967;-58
2024/03/06 13:28:15;;;;;;;;;;;;;;;;;;4165699;28;20357;-58
2024/03/06 13:30:16;;;;;;;;;;;;;;;;;;4166150;28;19975;-58
2024/03/06 13:32:18;;;;;;;;;;;;;;;;;;4165508;28;20412;-58
2024/03/06 13:34:19;;;;;;;;;;;;;;;;;;4165850;28;19931;-57
2024/03/06 13:36:22;;;;;;;;;;;;;;;;;;4163352;28;20396;-58
2024/03/06 13:38:23;;;;;;;;;;;;;;;;;;4156787;28;19972;-58
2024/03/06 13:40:26;;;;;;;;;;;;;;;;;;4161238;28;19931;-58
2024/03/06 13:42:28;;;;;;;;;;;;;;;;;;4165793;28;19979;-59
2024/03/06 13:44:30;;;;;;;;;;;;;;;;;;4163983;28;19932;-58
2024/03/06 13:46:31;;;;;;;;;;;;;;;;;;4153341;28;19953;-62
2024/03/06 13:48:33;;;;;;;;;;;;;;;;;;4148496;28;19922;-61
2024/03/06 13:50:36;;;;;;;;;;;;;;;;;;4148531;28;19925;-61
2024/03/06 13:52:38;;;;;;;;;;;;;;;;;;4149180;28;19960;-61
2024/03/06 13:54:39;;;;;;;;;;;;;;;;;;4149139;28;19921;-62
2024/03/06 13:56:41;;;;;;;;;;;;;;;;;;4149090;28;19928;-61
2024/03/06 13:58:43;;;;;;;;;;;;;;;;;;4149253;28;19929;-61
2024/03/06 14:00:45;;;;;;;;;;;;;;;;;;4149086;28;19922;-61